AirNav   Pilot Hours Calculator
 
 392 users online  

NK30 Private Sealanes-Jamaica Bay Seaplane Base
Brooklyn, New York, USA

GOING TO BROOKLYN?


FAA INFORMATION EFFECTIVE 28 MARCH 2019

Location

FAA Identifier: NK30
Lat/Long: 40-36-19.2000N / 073-54-08.4000W
40-36.320000N / 073-54.140000W
40.6053333 / -73.9023333
(estimated)
Elevation: 0 ft. / 0 m (estimated)
Variation: 13W (1985)
Time zone: UTC -4 (UTC -5 during Standard Time)
Zip code: 11234

Seaplane Base Operations

Seaplane Base use: Private use. Permission required prior to landing
Activation date: 11/1980
Control tower: no
ARTCC: NEW YORK CENTER
FSS: NEW YORK FLIGHT SERVICE STATION
Attendance: UNATNDD
Wind indicator: no
Segmented circle: no

Seaplane Base Communications

WX ASOS at JFK (6 nm E): PHONE 718-656-0956
WX AWOS-3PT at JRB (8 nm NW): 128.175 (212-425-1534)
WX ASOS at LGA (10 nm N): PHONE 718-672-6317
WX ASOS at EWR (13 nm NW): PHONE 973-621-2892
WX AWOS-3 at LDJ (16 nm W): 124.025 (908-862-7383)
WX ASOS at TEB (16 nm NW): 132.025 (201-393-0855)

Nearby radio navigation aids

VOR radial/distance  VOR name  Freq  Var
CRI at fieldCANARSIE VOR/DME112.3011W
JFKr267/6.2KENNEDY VOR/DME115.9012W
LGAr200/10.8LA GUARDIA VOR/DME113.1012W
TEBr165/16.3TETERBORO VOR/DME108.4011W
COLr045/21.2COLTS NECK VOR/DME115.4011W
DPKr260/29.4DEER PARK VOR/DME117.7012W
RBVr058/36.3ROBBINSVILLE VORTAC113.8010W
SBJr098/38.3SOLBERG VOR/DME112.9010W

 
NDB name  Hdg/Dist  Freq  Var  ID
BABYLON274/23.927514WBBN -... -... -.
CHATHAM122/25.325413WCAT -.-. .- -
LAKEHURST042/39.039611WNEL -. . .-..

Seaplane Base Services

Runway Information

Runway 8W/26W

Dimensions: 5000 x 500 ft. / 1524 x 152 m
Surface: water
RUNWAY 8W  RUNWAY 26W
Traffic pattern: leftleft

Runway 17W/35W

Dimensions: 5000 x 500 ft. / 1524 x 152 m
Surface: water
RUNWAY 17W  RUNWAY 35W
Traffic pattern: leftleft

Seaplane Base Ownership and Management from official FAA records

Ownership: Privately-owned
Owner: SAL & DIANE FONTANA
2620 NATIONAL DRIVE
BROOKLYN, NY 11234
Phone (917) 757-3422
Manager: SAL FONTANA
2620 NATIONAL DRIVE
BROOKLYN, NY 11234
Phone (917) 757-3422
ADDITIONAL CONTACT: DIANA FONTANA 917-923-5257

Seaplane Base Operational Statistics

Aircraft based on the field: 7
Single engine airplanes: 6
Helicopters: 1
    

Additional Remarks

FOR CD CTC NEW YORK APCH AT 516-683-2962.

Instrument Procedures

There are no published instrument procedures at NK30.

Some nearby airports with instrument procedures:

KJFK - John F Kennedy International Airport (6 nm E)
KJRB - Downtown Manhattan/Wall Street Heliport (8 nm NW)
6N5 - East 34th Street Heliport (9 nm N)
KJRA - West 30th St Heliport (10 nm NW)
KLGA - LaGuardia Airport (10 nm N)
KEWR - Newark Liberty International Airport (13 nm NW)
KLDJ - Linden Airport (16 nm W)
KTEB - Teterboro Airport (16 nm NW)
 
Loc | Ops | Rwys | IFR | FBO | Links
Com | Nav | Svcs | Stats | Notes
Area around NK30 (Private Sealanes-Jamaica Bay Seaplane Base)
 
Road maps at: MapQuest Bing Google
 
Aerial photo
No photo
 
Sectional chart

 
Airport distance calculator
Flying to Private Sealanes-Jamaica Bay Seaplane Base? Find the distance to fly.

From to NK30

Sunrise and sunset
Times for 22-Apr-2019
 Local
(UTC-4)
 Zulu
(UTC)
Morning civil twilight05:3909:39
Sunrise06:0810:08
Sunset19:4123:41
Evening civil twilight20:1000:10

Current date and time
Zulu (UTC)  22-Apr-2019 05:42:38
Local (UTC-4)  22-Apr-2019 01:42:38
 
METAR
KJFK 
6nm E 
220451Z 07004KT 10SM BKN140 BKN250 12/10 A3011 RMK AO2 SLP194 T01170100 401670106
KJRB 
8nm NW 
220456Z AUTO 04008KT 10SM CLR 13/08 A3010 RMK AO2 SLP193 T01280083 401890117
KLGA 
11nm N 
220451Z 04005KT 10SM BKN250 11/08 A3010 RMK AO2 SLP191 T01110078 401780106
KNYC 
11nm N 
220451Z AUTO VRB03KT 10SM CLR 13/08 A3012 RMK AO2 SLP190 T01280078 401890117 $
KEWR 
13nm W 
220451Z 05005KT 10SM SCT130 OVC180 14/08 A3009 RMK AO2 SLP188 T01390083 401780111
KLDJ 
16nm W 
220515Z AUTO 00000KT 10SM CLR 13/09 A3009 RMK AO2 T01310085
KTEB 
17nm NW 
220451Z 05004KT 10SM CLR 13/08 A3009 RMK AO2 SLP188 T01330078 402110128
TAF
KJFK 
6nm E 
220254Z 2203/2306 VRB04KT P6SM BKN050 BKN250 FM221200 03006KT P6SM SCT010 BKN050 FM221400 35006KT P6SM SCT025 BKN050 FM221700 36011KT P6SM SCT030 BKN050 PROB30 2218/2222 -SHRA FM230300 32007KT P6SM BKN050
KLGA 
11nm N 
220254Z 2203/2306 VRB04KT P6SM BKN050 BKN250 FM221200 03006KT P6SM SCT010 BKN050 FM221400 36006KT P6SM SCT025 BKN050 FM221700 35011KT P6SM SCT030 BKN050 PROB30 2218/2222 -SHRA FM230300 33007KT P6SM BKN050
KEWR 
13nm W 
220254Z 2203/2306 VRB04KT P6SM BKN050 BKN250 FM221200 01005KT P6SM SCT010 BKN050 FM221400 34006KT P6SM SCT025 BKN050 FM221700 36010KT P6SM SCT030 BKN050 PROB30 2218/2222 -SHRA FM230300 33007KT P6SM BKN050
KTEB 
17nm NW 
220254Z 2203/2306 VRB03KT P6SM BKN050 BKN250 FM221200 01004KT P6SM SCT010 BKN050 FM221400 34005KT P6SM SCT025 BKN050 FM221700 33007KT P6SM SCT030 BKN050 PROB30 2218/2222 -SHRA FM230100 VRB04KT P6SM BKN050
NOTAMs
Click for the latest NOTAMs
NOTAMs are issued by the DoD/FAA and will open in a separate window not controlled by AirNav.

 

 
 

Would you like to see your business listed on this page?

 If your business provides an interesting product or service to pilots, flight crews, aircraft, or users of the Private Sealanes-Jamaica Bay Seaplane Base, you should consider listing it here.  To start the listing process, click on the button below
 
Add a business
 

Other Pages about Private Sealanes-Jamaica Bay Seaplane Base

Update a link
 
Copyright © AirNav, LLC. All rights reserved. Privacy Policy  Contact